Time;durP1;ratioP1;P1;durP2;ratioP2;P2;SDS_P1;SDS_P2;PMS_P1;PMS_P2;Temp;Humidity;BMP_temperature;BMP_pressure;BME280_temperature;BME280_humidity;BME280_pressure;Samples;Min_cycle;Max_cycle;Signal;HPM_P1;HPM_P2
2020/12/07 00:01:46;;;;;;;40.37;24.87;;;4.70;99.90;;;;;;5025450;28;20232;-66
2020/12/07 00:04:11;;;;;;;35.73;23.23;;;4.70;99.90;;;;;;5035943;28;20203;-65
2020/12/07 00:06:37;;;;;;;37.10;23.77;;;4.60;99.90;;;;;;5006056;28;20509;-68
2020/12/07 00:09:04;;;;;;;36.27;23.33;;;4.60;99.90;;;;;;4996178;28;20693;-65
2020/12/07 00:11:29;;;;;;;35.37;22.77;;;4.50;99.90;;;;;;5016538;28;20462;-66
2020/12/07 00:13:55;;;;;;;35.83;22.77;;;4.50;99.90;;;;;;5033176;28;20410;-66
2020/12/07 00:16:21;;;;;;;37.67;22.93;;;4.40;99.90;;;;;;5026858;28;20168;-67
2020/12/07 00:18:46;;;;;;;41.60;23.63;;;4.40;99.90;;;;;;5013469;28;20630;-66
2020/12/07 00:21:12;;;;;;;38.90;24.13;;;4.40;99.90;;;;;;5023926;28;20199;-66
2020/12/07 00:23:37;;;;;;;38.87;24.37;;;4.40;99.90;;;;;;5019728;28;20230;-66
2020/12/07 00:26:06;;;;;;;39.83;23.10;;;4.40;99.90;;;;;;5013936;28;20179;-65
2020/12/07 00:28:32;;;;;;;39.37;22.73;;;4.40;99.90;;;;;;5027044;28;20176;-66
2020/12/07 00:30:57;;;;;;;38.67;23.27;;;4.40;99.90;;;;;;5032401;28;20446;-65
2020/12/07 00:33:23;;;;;;;40.97;24.47;;;4.40;99.90;;;;;;5013479;28;20264;-67
2020/12/07 00:35:49;;;;;;;39.50;23.43;;;4.40;99.90;;;;;;5032551;28;20187;-66
2020/12/07 00:38:14;;;;;;;41.53;23.33;;;4.40;99.90;;;;;;5033068;28;20175;-67
2020/12/07 00:40:40;;;;;;;38.10;22.97;;;4.50;99.90;;;;;;5032863;28;20179;-67
2020/12/07 00:43:05;;;;;;;37.77;23.23;;;4.50;99.90;;;;;;5032596;28;20252;-65
2020/12/07 00:45:31;;;;;;;41.93;24.10;;;4.50;99.90;;;;;;5032698;28;20187;-66
2020/12/07 00:47:56;;;;;;;39.10;23.30;;;4.50;99.90;;;;;;5025997;28;20176;-66
2020/12/07 00:50:22;;;;;;;42.93;25.53;;;4.40;99.90;;;;;;5032452;28;20200;-66
2020/12/07 00:52:48;;;;;;;44.50;26.70;;;4.50;99.90;;;;;;5008804;28;20255;-64
2020/12/07 00:55:13;;;;;;;40.93;24.17;;;4.50;99.90;;;;;;5013129;28;20191;-66
2020/12/07 00:57:39;;;;;;;40.90;24.17;;;4.50;99.90;;;;;;5032696;28;20180;-65
2020/12/07 01:00:06;;;;;;;42.90;26.40;;;4.50;99.90;;;;;;5032376;28;20183;-66
2020/12/07 01:02:35;;;;;;;42.23;25.73;;;4.50;99.90;;;;;;5032229;28;20183;-66
2020/12/07 01:05:01;;;;;;;39.17;23.73;;;4.60;99.90;;;;;;5033068;28;20462;-65
2020/12/07 01:07:27;;;;;;;42.67;24.50;;;4.60;99.90;;;;;;5012598;28;20420;-64
2020/12/07 01:09:52;;;;;;;43.13;25.50;;;4.60;99.90;;;;;;5012684;28;20180;-65
2020/12/07 01:12:18;;;;;;;39.07;23.97;;;4.70;99.90;;;;;;5012589;28;20626;-65
2020/12/07 01:14:44;;;;;;;37.97;20.90;;;4.60;99.90;;;;;;5012697;28;20275;-67
2020/12/07 01:17:10;;;;;;;39.70;23.63;;;4.80;99.90;;;;;;5012627;28;20181;-66
2020/12/07 01:19:35;;;;;;;37.97;24.17;;;4.60;99.90;;;;;;5013668;28;20438;-65
2020/12/07 01:22:01;;;;;;;41.47;25.63;;;4.60;99.90;;;;;;5012745;28;20176;-66
2020/12/07 01:24:27;;;;;;;38.87;24.57;;;4.60;99.90;;;;;;5015381;28;20184;-65
2020/12/07 01:26:53;;;;;;;38.93;24.60;;;4.60;99.90;;;;;;5012409;28;20427;-64
2020/12/07 01:29:18;;;;;;;42.77;25.80;;;4.60;99.90;;;;;;5028799;28;20180;-66
2020/12/07 01:31:44;;;;;;;40.77;25.77;;;4.60;99.90;;;;;;5015206;28;20200;-65
2020/12/07 01:34:09;;;;;;;42.90;24.83;;;4.60;99.90;;;;;;5031830;28;20176;-66
2020/12/07 01:36:35;;;;;;;41.87;24.83;;;4.60;99.90;;;;;;4998749;28;20185;-66
2020/12/07 01:39:01;;;;;;;42.23;25.10;;;4.60;99.90;;;;;;5011997;28;20165;-66
2020/12/07 01:41:26;;;;;;;42.93;24.40;;;4.60;99.90;;;;;;5012226;28;20172;-65
2020/12/07 01:43:52;;;;;;;40.60;23.77;;;4.60;99.90;;;;;;5028429;28;20250;-65
2020/12/07 01:46:23;;;;;;;43.30;25.07;;;4.60;99.90;;;;;;5022262;28;20175;-66
2020/12/07 01:48:50;;;;;;;39.83;26.07;;;4.70;99.90;;;;;;5031937;28;20182;-65
2020/12/07 01:51:16;;;;;;;40.33;25.60;;;4.70;99.90;;;;;;5031433;28;20454;-65
2020/12/07 01:53:43;;;;;;;41.10;25.47;;;4.70;99.90;;;;;;5030977;28;20425;-66
2020/12/07 01:56:18;;;;;;;45.80;27.20;;;4.60;99.90;;;;;;5012041;28;20423;-66
2020/12/07 01:58:44;;;;;;;41.00;25.47;;;4.60;99.90;;;;;;5020000;28;20528;-66
2020/12/07 02:01:10;;;;;;;43.40;26.27;;;4.60;99.90;;;;;;5012648;28;20944;-65
2020/12/07 02:03:35;;;;;;;41.73;24.97;;;4.60;99.90;;;;;;5033207;28;20251;-66
2020/12/07 02:06:01;;;;;;;39.83;24.97;;;4.60;99.90;;;;;;5021204;28;20172;-67
2020/12/07 02:08:26;;;;;;;40.03;23.77;;;4.60;99.90;;;;;;5029203;28;20182;-66
2020/12/07 02:10:52;;;;;;;39.20;24.80;;;4.60;99.90;;;;;;5025253;28;20622;-65
2020/12/07 02:13:18;;;;;;;37.17;23.53;;;4.60;99.90;;;;;;5015370;28;20256;-64
2020/12/07 02:15:43;;;;;;;37.13;23.17;;;4.60;99.90;;;;;;5026983;28;20255;-64
2020/12/07 02:18:09;;;;;;;40.10;23.17;;;4.60;99.90;;;;;;5011435;28;20175;-65
2020/12/07 02:20:35;;;;;;;37.57;22.57;;;4.60;99.90;;;;;;5016801;28;20649;-65
2020/12/07 02:23:02;;;;;;;38.67;22.50;;;4.60;99.90;;;;;;5016795;28;20625;-64
2020/12/07 02:25:27;;;;;;;37.53;23.60;;;4.60;99.90;;;;;;5031016;28;20766;-65
2020/12/07 02:27:53;;;;;;;34.80;21.67;;;4.60;99.90;;;;;;5030706;28;20410;-65
2020/12/07 02:30:20;;;;;;;38.57;22.90;;;4.60;99.90;;;;;;5011425;28;20239;-65
2020/12/07 02:32:48;;;;;;;34.93;22.20;;;4.60;99.90;;;;;;5012249;28;20176;-67
2020/12/07 02:35:14;;;;;;;36.43;21.70;;;4.50;99.90;;;;;;5027733;28;20414;-65
2020/12/07 02:37:41;;;;;;;35.50;21.97;;;4.50;99.90;;;;;;5016528;28;20554;-65
2020/12/07 02:40:08;;;;;;;37.03;23.57;;;4.50;99.90;;;;;;5030869;28;20415;-66
2020/12/07 02:42:35;;;;;;;32.27;20.10;;;4.40;99.90;;;;;;5024273;28;20438;-64
2020/12/07 02:45:13;;;;;;;30.47;18.70;;;4.50;99.90;;;;;;5020014;28;20407;-64
2020/12/07 02:47:39;;;;;;;35.87;20.77;;;4.50;99.90;;;;;;5017040;28;20422;-65
2020/12/07 02:50:07;;;;;;;33.50;22.07;;;4.50;99.90;;;;;;5023337;28;20490;-66
2020/12/07 02:52:33;;;;;;;35.73;21.43;;;4.50;99.90;;;;;;5011055;28;20451;-65
2020/12/07 02:55:02;;;;;;;32.03;20.33;;;4.50;99.90;;;;;;5028111;28;20418;-65
2020/12/07 02:57:28;;;;;;;31.87;20.10;;;4.50;99.90;;;;;;5030462;28;20469;-65
2020/12/07 02:59:54;;;;;;;33.93;20.53;;;4.50;99.90;;;;;;5030870;28;20945;-64
2020/12/07 03:02:20;;;;;;;32.07;20.13;;;4.50;99.90;;;;;;5012665;28;20442;-65
2020/12/07 03:04:46;;;;;;;34.80;20.60;;;4.50;99.90;;;;;;5023370;28;20220;-65
2020/12/07 03:07:12;;;;;;;32.17;18.70;;;4.50;99.90;;;;;;5026851;28;20692;-66
2020/12/07 03:09:38;;;;;;;29.43;18.27;;;4.50;99.90;;;;;;5029096;28;20617;-66
2020/12/07 03:12:04;;;;;;;30.93;18.63;;;4.40;99.90;;;;;;5018690;28;20291;-65
2020/12/07 03:14:30;;;;;;;33.10;19.17;;;4.50;99.90;;;;;;5020436;28;20460;-66
2020/12/07 03:16:56;;;;;;;30.20;19.57;;;4.50;99.90;;;;;;5012159;28;20415;-67
2020/12/07 03:19:21;;;;;;;30.37;19.23;;;4.50;99.90;;;;;;5011023;28;20177;-66
2020/12/07 03:21:47;;;;;;;30.63;18.83;;;4.40;99.90;;;;;;5013607;28;20176;-67
2020/12/07 03:24:12;;;;;;;34.40;19.40;;;4.30;99.90;;;;;;5018606;28;20256;-66
2020/12/07 03:26:38;;;;;;;28.20;17.60;;;4.40;99.90;;;;;;5019021;28;20312;-65
2020/12/07 03:29:05;;;;;;;28.00;17.67;;;4.40;99.90;;;;;;5010944;28;20676;-65
2020/12/07 03:31:32;;;;;;;26.77;17.73;;;4.30;99.90;;;;;;5017627;28;20203;-66
2020/12/07 03:33:58;;;;;;;28.63;16.70;;;4.40;99.90;;;;;;5010718;28;20426;-66
2020/12/07 03:36:24;;;;;;;24.37;17.57;;;4.30;99.90;;;;;;5010893;28;20804;-66
2020/12/07 03:38:50;;;;;;;26.60;16.10;;;4.30;99.90;;;;;;5010399;28;20414;-67
2020/12/07 03:41:16;;;;;;;24.57;14.97;;;4.30;99.90;;;;;;5010991;28;20177;-66
2020/12/07 03:43:41;;;;;;;22.47;14.70;;;4.30;99.90;;;;;;5028953;28;20595;-65
2020/12/07 03:46:07;;;;;;;24.67;14.83;;;4.30;99.90;;;;;;5029576;28;20183;-66
2020/12/07 03:48:33;;;;;;;22.40;14.20;;;4.20;99.90;;;;;;5016267;28;20226;-66
2020/12/07 03:50:58;;;;;;;24.80;16.47;;;4.20;99.90;;;;;;5029416;28;20195;-65
2020/12/07 03:53:24;;;;;;;20.83;13.70;;;4.20;99.90;;;;;;5017205;28;20207;-66
2020/12/07 03:55:50;;;;;;;23.77;13.83;;;4.20;99.90;;;;;;5029043;28;20715;-65
2020/12/07 03:58:15;;;;;;;23.20;13.37;;;4.20;99.90;;;;;;5011661;28;20176;-66
2020/12/07 04:00:42;;;;;;;20.33;13.03;;;4.20;99.90;;;;;;5012755;28;20654;-66
2020/12/07 04:03:10;;;;;;;20.10;13.40;;;4.20;99.90;;;;;;5020188;28;20656;-66
2020/12/07 04:05:41;;;;;;;20.70;13.23;;;4.10;99.90;;;;;;5014031;28;20908;-66
2020/12/07 04:08:08;;;;;;;23.03;13.33;;;4.20;99.90;;;;;;4996512;28;20995;-66
2020/12/07 04:10:36;;;;;;;22.80;13.30;;;4.20;99.90;;;;;;4994238;28;20510;-64
2020/12/07 04:13:02;;;;;;;20.63;12.73;;;4.20;99.90;;;;;;4999677;28;20561;-65
2020/12/07 04:15:27;;;;;;;19.33;12.63;;;4.20;99.90;;;;;;5002808;28;20510;-66
2020/12/07 04:17:53;;;;;;;20.67;12.23;;;4.20;99.90;;;;;;4976578;28;20436;-64
2020/12/07 04:20:18;;;;;;;21.80;13.17;;;4.20;99.90;;;;;;4993747;28;20192;-65
2020/12/07 04:22:44;;;;;;;19.20;11.60;;;4.10;99.90;;;;;;4993995;28;20277;-65
2020/12/07 04:25:10;;;;;;;17.07;11.10;;;4.10;99.90;;;;;;5002133;28;20177;-65
2020/12/07 04:27:35;;;;;;;23.60;12.60;;;4.10;99.90;;;;;;5013101;28;20215;-66
2020/12/07 04:30:01;;;;;;;19.93;12.30;;;4.10;99.90;;;;;;5013504;28;20176;-66
2020/12/07 04:32:26;;;;;;;21.90;13.17;;;4.10;99.90;;;;;;5012058;28;20183;-66
2020/12/07 04:34:52;;;;;;;21.33;12.33;;;4.10;99.90;;;;;;5001043;28;20185;-66
2020/12/07 04:37:17;;;;;;;22.37;13.20;;;4.10;99.90;;;;;;5013356;28;20177;-66
2020/12/07 04:39:43;;;;;;;23.47;13.17;;;4.10;99.90;;;;;;5013041;28;20184;-66
2020/12/07 04:42:09;;;;;;;24.40;14.60;;;4.10;99.90;;;;;;5006085;28;20264;-66
2020/12/07 04:44:34;;;;;;;31.03;16.30;;;4.10;99.90;;;;;;5001402;28;20251;-65
2020/12/07 04:47:00;;;;;;;26.47;14.87;;;4.10;99.90;;;;;;5010539;28;20631;-66
2020/12/07 04:49:32;;;;;;;26.03;15.07;;;4.10;99.90;;;;;;5013226;28;20271;-66
2020/12/07 04:51:59;;;;;;;25.00;15.30;;;4.10;99.90;;;;;;5013182;28;20490;-66
2020/12/07 04:54:28;;;;;;;26.30;16.97;;;4.10;99.90;;;;;;4999774;28;20417;-65
2020/12/07 04:56:57;;;;;;;26.97;15.97;;;4.10;99.90;;;;;;5001071;28;20930;-65
2020/12/07 04:59:23;;;;;;;25.30;16.03;;;4.20;99.90;;;;;;4984136;28;20475;-66
2020/12/07 05:01:50;;;;;;;28.53;16.90;;;4.20;99.90;;;;;;5003034;28;20925;-64
2020/12/07 05:04:16;;;;;;;33.83;18.00;;;4.10;99.90;;;;;;5022125;28;20533;-65
2020/12/07 05:06:41;;;;;;;26.37;16.87;;;4.10;99.90;;;;;;5032812;28;20426;-66
2020/12/07 05:09:08;;;;;;;25.17;16.80;;;4.10;99.90;;;;;;5032105;28;20648;-67
2020/12/07 05:11:33;;;;;;;27.00;17.10;;;4.10;99.90;;;;;;5020420;28;20208;-66
2020/12/07 05:14:12;;;;;;;29.53;17.47;;;4.00;99.90;;;;;;5012459;28;20432;-65
2020/12/07 05:16:38;;;;;;;28.40;17.07;;;4.10;99.90;;;;;;5013002;28;20180;-66
2020/12/07 05:19:10;;;;;;;28.43;17.47;;;4.10;99.90;;;;;;5028783;28;20427;-65
2020/12/07 05:21:38;;;;;;;28.13;16.67;;;4.10;99.90;;;;;;5032467;28;20576;-66
2020/12/07 05:24:05;;;;;;;28.33;17.63;;;4.20;99.90;;;;;;5032526;28;20879;-64
2020/12/07 05:26:33;;;;;;;29.93;18.07;;;4.10;99.90;;;;;;5031888;28;20414;-66
2020/12/07 05:29:05;;;;;;;29.93;17.40;;;4.20;99.90;;;;;;5032112;28;20488;-64
2020/12/07 05:31:33;;;;;;;28.73;17.93;;;4.10;99.90;;;;;;5029091;28;20465;-64
2020/12/07 05:33:59;;;;;;;29.60;18.63;;;4.10;99.90;;;;;;5012488;28;20426;-66
2020/12/07 05:36:25;;;;;;;29.07;17.47;;;4.00;99.90;;;;;;5028630;28;20410;-68
2020/12/07 05:38:51;;;;;;;29.57;18.63;;;4.00;99.90;;;;;;5012673;28;20185;-64
2020/12/07 05:41:19;;;;;;;28.03;18.07;;;4.00;99.90;;;;;;5012203;28;20188;-65
2020/12/07 05:43:47;;;;;;;28.23;16.07;;;4.00;99.90;;;;;;5029367;28;20191;-65
2020/12/07 05:46:14;;;;;;;25.23;15.70;;;4.00;99.90;;;;;;5023545;28;20427;-66
2020/12/07 05:48:44;;;;;;;28.10;16.93;;;4.10;99.90;;;;;;5011970;28;20871;-66
2020/12/07 05:51:12;;;;;;;29.97;16.97;;;4.10;99.90;;;;;;5013764;28;20944;-65
2020/12/07 05:53:38;;;;;;;26.17;16.53;;;4.10;99.90;;;;;;5023192;28;20447;-66
2020/12/07 05:56:06;;;;;;;27.80;17.60;;;4.10;99.90;;;;;;5031803;28;20414;-66
2020/12/07 05:58:57;;;;;;;26.50;16.30;;;4.10;99.90;;;;;;5024695;28;20775;-65
2020/12/07 06:01:26;;;;;;;23.37;16.43;;;4.10;99.90;;;;;;5010977;28;20415;-66
2020/12/07 06:03:53;;;;;;;28.53;17.20;;;4.10;99.90;;;;;;5017091;28;20482;-66
2020/12/07 06:06:35;;;;;;;26.47;16.70;;;4.10;99.90;;;;;;5011518;28;20423;-66
2020/12/07 06:09:05;;;;;;;26.60;16.90;;;4.10;99.90;;;;;;5011677;28;20427;-66
2020/12/07 06:11:40;;;;;;;27.93;17.10;;;4.10;99.90;;;;;;5011764;28;20463;-66
2020/12/07 06:14:06;;;;;;;28.33;18.33;;;4.10;99.90;;;;;;5011505;28;20417;-66
2020/12/07 06:16:48;;;;;;;26.37;17.43;;;4.10;99.90;;;;;;5011884;28;20502;-66
2020/12/07 06:19:15;;;;;;;28.70;17.93;;;4.10;99.90;;;;;;5011531;28;20420;-65
2020/12/07 06:21:54;;;;;;;29.80;17.03;;;4.10;99.90;;;;;;5011261;28;20426;-65
2020/12/07 06:24:20;;;;;;;26.83;16.63;;;4.10;99.90;;;;;;5010913;28;20422;-65
2020/12/07 06:27:10;;;;;;;27.17;17.03;;;4.10;99.90;;;;;;5011391;28;20422;-64
2020/12/07 06:29:36;;;;;;;23.40;15.33;;;4.10;99.90;;;;;;5010933;28;20432;-63
2020/12/07 06:32:02;;;;;;;27.83;16.13;;;4.10;99.90;;;;;;5011148;28;20451;-66
2020/12/07 06:34:38;;;;;;;27.10;15.43;;;4.20;99.90;;;;;;5011197;28;20431;-65
2020/12/07 06:37:11;;;;;;;26.63;15.77;;;4.20;99.90;;;;;;5011236;28;20188;-66
2020/12/07 06:39:44;;;;;;;23.13;14.53;;;4.20;99.90;;;;;;5011083;28;20434;-65
2020/12/07 06:42:11;;;;;;;21.80;14.60;;;4.20;99.90;;;;;;5010985;28;20920;-66
2020/12/07 06:44:49;;;;;;;21.80;14.17;;;4.30;99.90;;;;;;5011130;28;20459;-65
2020/12/07 06:47:24;;;;;;;20.67;13.83;;;4.30;99.90;;;;;;5010886;28;20423;-64
2020/12/07 06:49:54;;;;;;;19.60;12.33;;;4.30;99.90;;;;;;5011345;28;21134;-65
2020/12/07 06:52:22;;;;;;;19.57;12.47;;;4.30;99.90;;;;;;5011106;28;21000;-65
2020/12/07 06:55:06;;;;;;;18.93;11.90;;;4.30;99.90;;;;;;5010191;28;20518;-66
2020/12/07 06:57:47;;;;;;;19.57;10.73;;;4.20;99.90;;;;;;5010973;28;20984;-66
2020/12/07 07:00:27;;;;;;;18.07;11.73;;;4.30;99.90;;;;;;5010176;28;20419;-66
2020/12/07 07:02:58;;;;;;;16.83;11.13;;;4.20;99.90;;;;;;5003906;28;20486;-66
2020/12/07 07:05:27;;;;;;;17.23;10.57;;;4.30;99.90;;;;;;5012883;28;20530;-64
2020/12/07 07:07:54;;;;;;;16.10;10.57;;;4.30;99.90;;;;;;5011207;28;20414;-64
2020/12/07 07:10:20;;;;;;;12.97;8.50;;;4.40;99.90;;;;;;5011277;28;20451;-65
2020/12/07 07:12:48;;;;;;;16.13;9.73;;;4.40;99.90;;;;;;5010786;28;20427;-65
2020/12/07 07:15:14;;;;;;;16.40;10.13;;;4.40;99.90;;;;;;5011114;28;20444;-65
2020/12/07 07:17:42;;;;;;;17.87;11.97;;;4.40;99.90;;;;;;5010838;28;20419;-65
2020/12/07 07:20:13;;;;;;;19.33;12.17;;;4.40;99.90;;;;;;5011348;28;20444;-65
2020/12/07 07:22:47;;;;;;;16.20;10.57;;;4.40;99.90;;;;;;5011199;28;20443;-66
2020/12/07 07:30:22;;;;;;;17.10;11.33;;;4.50;99.90;;;;;;5010771;28;20981;-65
2020/12/07 07:32:51;;;;;;;25.47;15.40;;;4.50;99.90;;;;;;5010858;28;20554;-65
2020/12/07 07:35:19;;;;;;;21.10;13.83;;;4.40;99.90;;;;;;5013989;28;20502;-66
2020/12/07 07:37:45;;;;;;;19.10;12.23;;;4.40;99.90;;;;;;5014800;28;20449;-66
2020/12/07 07:40:16;;;;;;;23.43;13.60;;;4.40;99.90;;;;;;5014547;28;20419;-65
2020/12/07 07:42:48;;;;;;;20.37;12.30;;;4.40;99.90;;;;;;5014785;28;20575;-66
2020/12/07 07:45:16;;;;;;;21.57;13.23;;;4.50;99.90;;;;;;5014596;28;20840;-64
2020/12/07 07:47:51;;;;;;;19.53;11.73;;;4.50;99.90;;;;;;5014492;28;20482;-65
2020/12/07 08:16:05;;;;;;;18.90;12.47;;;4.60;99.90;;;;;;5022517;28;20916;-65
2020/12/07 08:18:05;;;;;;;23.03;14.93;;;4.60;99.90;;;;;;5010764;28;20732;-67
2020/12/07 08:20:34;;;;;;;21.77;14.13;;;4.70;99.90;;;;;;5022542;28;20413;-65
2020/12/07 08:23:05;;;;;;;18.87;12.53;;;4.70;99.90;;;;;;5027433;28;20262;-66
2020/12/07 08:25:49;;;;;;;17.77;13.60;;;4.80;99.90;;;;;;5028396;28;20427;-68
2020/12/07 08:28:16;;;;;;;20.23;15.70;;;4.80;99.90;;;;;;5017917;28;20427;-66
2020/12/07 08:31:13;;;;;;;22.73;15.27;;;4.80;99.90;;;;;;5024760;28;20456;-67
2020/12/07 08:33:52;;;;;;;18.57;13.67;;;4.90;99.90;;;;;;5023249;28;20541;-67
2020/12/07 08:36:18;;;;;;;20.50;14.90;;;4.90;99.90;;;;;;5027849;28;20895;-67
2020/12/07 08:38:45;;;;;;;22.60;14.67;;;5.00;99.90;;;;;;5032758;28;20424;-65
2020/12/07 08:41:16;;;;;;;22.07;15.00;;;5.10;99.90;;;;;;5033154;28;20876;-65
2020/12/07 08:43:48;;;;;;;23.27;14.80;;;5.20;99.90;;;;;;5032742;28;20426;-68
2020/12/07 08:46:16;;;;;;;19.73;13.40;;;5.30;99.90;;;;;;5020958;28;20913;-65
2020/12/07 08:48:42;;;;;;;21.13;14.20;;;5.30;99.90;;;;;;5031016;28;20481;-67
2020/12/07 08:51:08;;;;;;;22.50;13.97;;;5.30;99.90;;;;;;5019808;28;20443;-66
2020/12/07 08:53:34;;;;;;;18.97;13.43;;;5.30;99.90;;;;;;5015209;28;20231;-67
2020/12/07 08:56:02;;;;;;;21.30;14.07;;;5.30;99.90;;;;;;5032450;28;20434;-66
2020/12/07 08:58:28;;;;;;;20.07;13.40;;;5.30;99.90;;;;;;5026169;28;20494;-64
2020/12/07 09:00:54;;;;;;;19.33;12.77;;;5.40;99.90;;;;;;5012719;28;20510;-67
2020/12/07 09:03:19;;;;;;;19.90;12.43;;;5.50;99.90;;;;;;5012863;28;20177;-64
2020/12/07 09:05:45;;;;;;;20.73;13.97;;;5.50;99.90;;;;;;5014251;28;20729;-65
2020/12/07 09:08:11;;;;;;;20.27;12.30;;;5.60;99.90;;;;;;5012091;28;20178;-67
2020/12/07 09:10:36;;;;;;;18.73;13.17;;;5.60;99.90;;;;;;5012818;28;20204;-67
2020/12/07 09:13:04;;;;;;;18.37;13.40;;;5.60;99.90;;;;;;5012297;28;20172;-68
2020/12/07 09:15:31;;;;;;;19.57;12.70;;;5.60;99.90;;;;;;5012753;28;20247;-68
2020/12/07 09:17:57;;;;;;;19.13;12.93;;;5.60;99.90;;;;;;5012402;28;20419;-67
2020/12/07 09:20:22;;;;;;;20.67;12.90;;;5.60;99.90;;;;;;5012558;28;20570;-65
2020/12/07 09:22:48;;;;;;;21.93;12.80;;;5.50;99.90;;;;;;5012739;28;20200;-68
2020/12/07 09:25:14;;;;;;;20.27;13.43;;;5.50;99.90;;;;;;5012534;28;20187;-64
2020/12/07 09:27:39;;;;;;;18.40;12.90;;;5.50;99.90;;;;;;5012573;28;20189;-66
2020/12/07 09:30:06;;;;;;;17.37;11.43;;;5.40;99.90;;;;;;5012568;28;20235;-66
2020/12/07 09:32:31;;;;;;;19.13;13.10;;;5.40;99.90;;;;;;5012318;28;20193;-67
2020/12/07 09:34:57;;;;;;;23.00;13.70;;;5.30;99.90;;;;;;5012254;28;20423;-66
2020/12/07 09:37:23;;;;;;;20.03;12.30;;;5.30;99.90;;;;;;5011985;28;20570;-65
2020/12/07 09:39:48;;;;;;;23.03;14.47;;;5.30;99.90;;;;;;5012531;28;20722;-68
2020/12/07 09:42:14;;;;;;;16.80;12.27;;;5.40;99.90;;;;;;5012205;28;20188;-68
2020/12/07 09:44:40;;;;;;;18.20;12.10;;;5.40;99.90;;;;;;5012320;28;20481;-67
2020/12/07 09:47:05;;;;;;;18.07;12.77;;;5.40;99.90;;;;;;5012063;28;20196;-67
2020/12/07 09:49:32;;;;;;;18.77;13.60;;;5.40;99.90;;;;;;5011869;28;20231;-66
2020/12/07 09:51:57;;;;;;;20.23;13.87;;;5.40;99.90;;;;;;5012384;28;20549;-65
2020/12/07 09:54:23;;;;;;;14.70;10.73;;;5.50;99.90;;;;;;5011869;28;20427;-65
2020/12/07 09:56:55;;;;;;;16.10;10.87;;;5.60;99.90;;;;;;5011545;28;20189;-65
2020/12/07 09:59:21;;;;;;;19.50;13.40;;;5.60;99.90;;;;;;5011533;28;20482;-65
2020/12/07 10:01:46;;;;;;;19.80;13.30;;;5.60;99.90;;;;;;5011804;28;20634;-67
2020/12/07 10:04:18;;;;;;;18.67;11.87;;;5.50;99.90;;;;;;5013141;28;20239;-67
2020/12/07 10:06:51;;;;;;;18.87;12.93;;;5.50;99.90;;;;;;5011788;28;20190;-65
2020/12/07 10:09:16;;;;;;;17.90;12.13;;;5.50;99.90;;;;;;5011912;28;20412;-67
2020/12/07 10:11:42;;;;;;;19.67;13.83;;;5.60;99.90;;;;;;5011540;28;20462;-68
2020/12/07 10:14:08;;;;;;;16.50;11.97;;;5.70;99.90;;;;;;5011747;28;20181;-66
2020/12/07 10:16:34;;;;;;;31.10;14.40;;;5.80;99.90;;;;;;5011725;28;20172;-64
2020/12/07 10:19:00;;;;;;;22.87;13.90;;;5.80;99.90;;;;;;5010670;28;20422;-66
2020/12/07 10:21:26;;;;;;;14.57;10.73;;;5.80;99.90;;;;;;5011651;28;20577;-65
2020/12/07 10:23:52;;;;;;;18.33;10.93;;;5.80;99.90;;;;;;4993069;28;20180;-65
2020/12/07 10:26:22;;;;;;;14.00;10.20;;;5.80;99.90;;;;;;5011607;28;20176;-65
2020/12/07 10:28:48;;;;;;;16.83;11.10;;;5.80;99.90;;;;;;5011559;28;20466;-65
2020/12/07 10:31:14;;;;;;;18.43;11.97;;;5.80;99.90;;;;;;5010951;28;20846;-64
2020/12/07 10:33:39;;;;;;;20.63;11.87;;;5.70;99.90;;;;;;5011517;28;20184;-67
2020/12/07 10:36:07;;;;;;;19.77;11.00;;;5.70;99.90;;;;;;5011250;28;20211;-65
2020/12/07 10:38:32;;;;;;;16.53;11.33;;;5.60;99.90;;;;;;5011452;28;20204;-67
2020/12/07 10:40:58;;;;;;;26.43;13.23;;;5.60;99.90;;;;;;5011318;28;20450;-66
2020/12/07 10:43:24;;;;;;;19.00;11.97;;;5.60;99.90;;;;;;5011218;28;20518;-65
2020/12/07 10:45:49;;;;;;;16.50;12.13;;;5.60;99.90;;;;;;5011329;28;20184;-67
2020/12/07 10:48:15;;;;;;;18.03;10.87;;;5.60;99.90;;;;;;5011141;28;20179;-64
2020/12/07 10:50:40;;;;;;;16.67;10.87;;;5.70;99.90;;;;;;5011285;28;20724;-65
2020/12/07 10:53:06;;;;;;;14.43;9.80;;;5.70;99.90;;;;;;5011297;28;20223;-66
2020/12/07 10:55:31;;;;;;;14.17;10.37;;;5.70;99.90;;;;;;5011144;28;20567;-65
2020/12/07 10:57:58;;;;;;;15.90;10.17;;;5.70;99.90;;;;;;5011354;28;20168;-67
2020/12/07 11:00:23;;;;;;;25.37;10.50;;;5.70;99.90;;;;;;5010763;28;20657;-67
2020/12/07 11:02:49;;;;;;;16.83;10.03;;;5.70;99.90;;;;;;4992516;28;20412;-66
2020/12/07 11:05:14;;;;;;;13.30;10.07;;;5.80;99.90;;;;;;5012859;28;20295;-64
2020/12/07 11:07:42;;;;;;;14.37;11.00;;;5.80;99.90;;;;;;5011044;28;20179;-68
2020/12/07 11:10:07;;;;;;;18.70;10.73;;;5.90;99.90;;;;;;5014233;28;20537;-67
2020/12/07 11:12:33;;;;;;;15.37;10.30;;;5.90;99.90;;;;;;5014823;28;20469;-66
2020/12/07 11:14:58;;;;;;;16.23;10.40;;;5.90;99.90;;;;;;5014974;28;20263;-67
2020/12/07 11:17:24;;;;;;;14.23;9.80;;;5.90;99.90;;;;;;5009842;28;20259;-65
2020/12/07 11:19:50;;;;;;;16.90;10.83;;;5.80;99.90;;;;;;5015152;28;20165;-65
2020/12/07 11:22:16;;;;;;;19.47;10.67;;;5.80;99.90;;;;;;5015005;28;20642;-65
2020/12/07 11:24:42;;;;;;;22.03;10.77;;;5.80;99.90;;;;;;5014483;28;20543;-65
2020/12/07 11:27:07;;;;;;;15.57;12.20;;;5.80;99.90;;;;;;5014844;28;20415;-67
2020/12/07 11:29:34;;;;;;;13.20;10.43;;;5.90;99.90;;;;;;5014468;28;20570;-66
2020/12/07 11:31:59;;;;;;;15.80;10.37;;;6.00;99.90;;;;;;5015021;28;20192;-64
2020/12/07 11:34:25;;;;;;;13.90;9.47;;;5.90;99.90;;;;;;5014734;28;20454;-67
2020/12/07 11:36:52;;;;;;;21.03;11.63;;;6.00;99.90;;;;;;5014631;28;20179;-67
2020/12/07 11:39:31;;;;;;;17.63;11.23;;;6.00;99.90;;;;;;5014795;28;20686;-65
2020/12/07 11:42:06;;;;;;;15.73;10.57;;;5.90;99.90;;;;;;5007628;28;20419;-66
2020/12/07 11:44:34;;;;;;;12.10;9.80;;;5.90;99.90;;;;;;5014490;28;20407;-66
2020/12/07 11:47:02;;;;;;;13.40;10.03;;;6.00;99.90;;;;;;5014299;28;20419;-65
2020/12/07 11:49:28;;;;;;;20.77;10.70;;;5.90;99.90;;;;;;5014486;28;20869;-64
2020/12/07 11:51:54;;;;;;;16.73;10.23;;;5.90;99.90;;;;;;5014193;28;20454;-67
2020/12/07 11:54:19;;;;;;;13.43;9.80;;;5.90;99.90;;;;;;5014320;28;20173;-66
2020/12/07 11:56:45;;;;;;;13.07;10.50;;;5.90;99.90;;;;;;5014353;28;20185;-64
2020/12/07 11:59:11;;;;;;;15.17;11.80;;;5.90;99.90;;;;;;5013821;28;21727;-67
2020/12/07 12:01:37;;;;;;;18.07;13.47;;;5.90;99.90;;;;;;5014277;28;20538;-66
2020/12/07 12:04:04;;;;;;;19.50;13.27;;;5.90;99.90;;;;;;5014905;28;20431;-65
2020/12/07 12:06:38;;;;;;;18.20;13.67;;;5.80;99.90;;;;;;5013944;28;20589;-64
2020/12/07 12:09:10;;;;;;;16.40;10.43;;;5.80;99.90;;;;;;5013717;28;20462;-67
2020/12/07 12:11:36;;;;;;;18.37;13.20;;;5.70;99.90;;;;;;5013876;28;20455;-68
2020/12/07 12:14:04;;;;;;;18.87;12.27;;;5.70;99.90;;;;;;5013834;28;20515;-67
2020/12/07 12:16:31;;;;;;;17.93;12.23;;;5.60;99.90;;;;;;5014016;28;20423;-66
2020/12/07 12:18:57;;;;;;;16.80;12.03;;;5.60;99.90;;;;;;5013724;28;20489;-64
2020/12/07 12:21:26;;;;;;;16.63;12.33;;;5.40;99.90;;;;;;5012725;28;20450;-64
2020/12/07 12:23:51;;;;;;;18.23;12.53;;;5.50;99.90;;;;;;5013987;28;20828;-67
2020/12/07 12:26:19;;;;;;;19.20;12.83;;;5.50;99.90;;;;;;5013573;28;20419;-68
2020/12/07 12:28:45;;;;;;;16.73;12.33;;;5.50;99.90;;;;;;5013542;28;20177;-65
2020/12/07 12:31:11;;;;;;;18.30;12.67;;;5.50;99.90;;;;;;5013488;28;20462;-66
2020/12/07 12:33:36;;;;;;;18.50;12.23;;;5.60;99.90;;;;;;5013266;28;20176;-64
2020/12/07 12:36:03;;;;;;;18.73;12.57;;;5.60;99.90;;;;;;5014040;28;20415;-67
2020/12/07 12:38:29;;;;;;;17.13;12.57;;;5.60;99.90;;;;;;5013197;28;20646;-65
2020/12/07 12:40:54;;;;;;;17.77;11.63;;;5.70;99.90;;;;;;5013658;28;20415;-67
2020/12/07 12:43:20;;;;;;;19.20;12.57;;;5.60;99.90;;;;;;5013364;28;20207;-66
2020/12/07 12:45:45;;;;;;;20.27;13.70;;;5.60;99.90;;;;;;5013191;28;20590;-66
2020/12/07 12:48:11;;;;;;;21.30;14.17;;;5.60;99.90;;;;;;5013321;28;20216;-65
2020/12/07 12:50:37;;;;;;;17.77;12.87;;;5.70;99.90;;;;;;5012887;28;20203;-66
2020/12/07 12:53:02;;;;;;;16.77;12.20;;;5.60;99.90;;;;;;5013047;28;20549;-65
2020/12/07 12:55:28;;;;;;;17.80;11.93;;;5.70;99.90;;;;;;5013266;28;20183;-64
2020/12/07 12:57:53;;;;;;;15.83;11.50;;;5.70;99.90;;;;;;5012991;28;20507;-64
2020/12/07 13:00:20;;;;;;;17.97;12.27;;;5.70;99.90;;;;;;5013015;28;20172;-65
2020/12/07 13:02:45;;;;;;;18.57;12.97;;;5.60;99.90;;;;;;5012916;28;20846;-64
2020/12/07 13:05:11;;;;;;;18.43;12.80;;;5.60;99.90;;;;;;5014232;28;20541;-66
2020/12/07 13:07:37;;;;;;;17.00;11.97;;;5.60;99.90;;;;;;5012799;28;20259;-67
2020/12/07 13:10:03;;;;;;;18.97;12.20;;;5.60;99.90;;;;;;5012509;28;20292;-64